PRPSB SBPV-SBTF
Flight info
| Callsign | PRPSB |
|---|---|
| Flight time | 0h 58m |
| Altitude | 33000 |
| Route | MUPEG UL793 DARIO UP793 KUKAR |
| Aircraft | E55P/L-L/2000 |
Departure
| Time | 2026-04-26 17:51 |
|---|---|
| Airport | Governador Jorge Teixeira de Oliveira International Airport (SBPV) |
Arrival
| Time | 2026-04-26 18:49 |
|---|---|
| Airport | Tefé Airport (SBTF) |
| Time | Latitude | Longitude | Altitude | Speed | Heading |
|---|---|---|---|---|---|
| 2026-04-26 17:34 | -8.71283 | -63.90006 | 294 ft | 0 kts | 177° |
| 2026-04-26 17:47 | -8.71288 | -63.90007 | 294 ft | 2 kts | 211° |
| 2026-04-26 17:47 | -8.71293 | -63.90014 | 294 ft | 4 kts | 243° |
| 2026-04-26 17:47 | -8.71358 | -63.90062 | 294 ft | 11 kts | 174° |
| 2026-04-26 17:47 | -8.71426 | -63.90058 | 294 ft | 8 kts | 178° |
| 2026-04-26 17:48 | -8.71470 | -63.90057 | 294 ft | 4 kts | 178° |
| 2026-04-26 17:48 | -8.71494 | -63.90056 | 294 ft | 3 kts | 177° |
| 2026-04-26 17:48 | -8.71518 | -63.90055 | 294 ft | 3 kts | 176° |
| 2026-04-26 17:48 | -8.71544 | -63.90053 | 294 ft | 4 kts | 176° |
| 2026-04-26 17:49 | -8.71585 | -63.90051 | 294 ft | 7 kts | 176° |
| 2026-04-26 17:49 | -8.71644 | -63.90047 | 294 ft | 9 kts | 176° |
| 2026-04-26 17:49 | -8.71720 | -63.90042 | 294 ft | 12 kts | 176° |
| 2026-04-26 17:49 | -8.71813 | -63.90037 | 294 ft | 14 kts | 177° |
| 2026-04-26 17:50 | -8.71912 | -63.90066 | 294 ft | 15 kts | 224° |
| 2026-04-26 17:50 | -8.71986 | -63.90134 | 294 ft | 15 kts | 221° |
| 2026-04-26 17:50 | -8.71992 | -63.90174 | 294 ft | 0 kts | 350° |
| 2026-04-26 17:50 | -8.71899 | -63.90179 | 294 ft | 47 kts | 357° |
| 2026-04-26 17:51 | -8.71278 | -63.90213 | 295 ft | 126 kts | 356° |
| 2026-04-26 17:51 | -8.70266 | -63.90255 | 735 ft | 157 kts | 357° |
| 2026-04-26 17:51 | -8.69008 | -63.90318 | 1126 ft | 203 kts | 357° |
| 2026-04-26 17:51 | -8.67382 | -63.90428 | 1554 ft | 251 kts | 356° |
| 2026-04-26 17:52 | -8.65622 | -63.90546 | 2836 ft | 259 kts | 356° |
| 2026-04-26 17:52 | -8.63840 | -63.90463 | 4140 ft | 264 kts | 18° |
| 2026-04-26 17:52 | -8.62277 | -63.89526 | 5212 ft | 266 kts | 34° |
| 2026-04-26 17:52 | -8.60753 | -63.88401 | 6105 ft | 270 kts | 37° |
| 2026-04-26 17:53 | -8.59271 | -63.87228 | 6991 ft | 273 kts | 38° |
| 2026-04-26 17:53 | -8.57767 | -63.86009 | 7879 ft | 276 kts | 38° |
| 2026-04-26 17:53 | -8.56248 | -63.84764 | 8761 ft | 279 kts | 39° |
| 2026-04-26 17:54 | -8.53203 | -63.82252 | 10431 ft | 286 kts | 40° |
| 2026-04-26 17:54 | -8.51651 | -63.80967 | 11229 ft | 289 kts | 40° |
| 2026-04-26 17:54 | -8.50052 | -63.79644 | 12018 ft | 293 kts | 41° |
| 2026-04-26 17:54 | -8.48462 | -63.78325 | 12791 ft | 297 kts | 41° |
| 2026-04-26 17:55 | -8.46866 | -63.77000 | 13563 ft | 300 kts | 41° |
| 2026-04-26 17:55 | -8.45246 | -63.75657 | 14315 ft | 303 kts | 40° |
| 2026-04-26 17:55 | -8.43575 | -63.74273 | 15070 ft | 306 kts | 40° |
| 2026-04-26 17:55 | -8.41935 | -63.72915 | 15786 ft | 309 kts | 40° |
| 2026-04-26 17:56 | -8.40234 | -63.71507 | 16501 ft | 312 kts | 40° |
| 2026-04-26 17:56 | -8.36787 | -63.68653 | 17879 ft | 318 kts | 40° |
| 2026-04-26 17:57 | -8.33324 | -63.65786 | 18858 ft | 334 kts | 40° |
| 2026-04-26 17:57 | -8.31490 | -63.64270 | 19124 ft | 348 kts | 39° |
| 2026-04-26 17:57 | -8.29587 | -63.62694 | 19680 ft | 353 kts | 39° |
| 2026-04-26 17:57 | -8.27684 | -63.61135 | 20258 ft | 356 kts | 37° |
| 2026-04-26 17:58 | -8.20353 | -63.60819 | 21907 ft | 369 kts | 350° |
| 2026-04-26 17:59 | -8.15286 | -63.61850 | 22964 ft | 374 kts | 350° |
| 2026-04-26 17:59 | -8.12703 | -63.62381 | 23476 ft | 376 kts | 350° |
| 2026-04-26 17:59 | -8.10131 | -63.62913 | 23967 ft | 379 kts | 349° |
| 2026-04-26 17:59 | -8.07541 | -63.63450 | 24447 ft | 381 kts | 349° |
| 2026-04-26 18:00 | -8.04945 | -63.63989 | 24910 ft | 384 kts | 349° |
| 2026-04-26 18:00 | -8.02330 | -63.64532 | 25366 ft | 386 kts | 349° |
| 2026-04-26 18:00 | -7.99709 | -63.65077 | 25806 ft | 388 kts | 349° |
| 2026-04-26 18:00 | -7.97035 | -63.65633 | 26241 ft | 391 kts | 349° |
| 2026-04-26 18:01 | -7.94390 | -63.66182 | 26657 ft | 393 kts | 349° |
| 2026-04-26 18:01 | -7.91702 | -63.66741 | 27067 ft | 395 kts | 349° |
| 2026-04-26 18:01 | -7.89000 | -63.67302 | 27468 ft | 398 kts | 349° |
| 2026-04-26 18:01 | -7.86307 | -63.67862 | 27857 ft | 400 kts | 349° |
| 2026-04-26 18:02 | -7.83567 | -63.68431 | 28242 ft | 402 kts | 349° |
| 2026-04-26 18:02 | -7.82655 | -63.68621 | 28367 ft | 403 kts | 349° |
| 2026-04-26 18:02 | -7.78079 | -63.69572 | 28980 ft | 406 kts | 349° |
| 2026-04-26 18:02 | -7.75337 | -63.70141 | 29333 ft | 408 kts | 349° |
| 2026-04-26 18:03 | -7.72529 | -63.70725 | 29684 ft | 411 kts | 349° |
| 2026-04-26 18:03 | -7.69728 | -63.71306 | 30023 ft | 413 kts | 349° |
| 2026-04-26 18:03 | -7.66880 | -63.71897 | 30358 ft | 415 kts | 348° |
| 2026-04-26 18:03 | -7.64021 | -63.72491 | 30684 ft | 417 kts | 348° |
| 2026-04-26 18:04 | -7.61160 | -63.73085 | 31002 ft | 419 kts | 348° |
| 2026-04-26 18:04 | -7.58316 | -63.73675 | 31308 ft | 421 kts | 348° |
| 2026-04-26 18:04 | -7.55390 | -63.74282 | 31629 ft | 422 kts | 348° |
| 2026-04-26 18:05 | -7.49637 | -63.75475 | 32421 ft | 421 kts | 348° |
| 2026-04-26 18:05 | -7.46780 | -63.76068 | 32803 ft | 420 kts | 348° |
| 2026-04-26 18:05 | -7.43895 | -63.76666 | 32899 ft | 427 kts | 348° |
| 2026-04-26 18:06 | -7.38005 | -63.77888 | 32912 ft | 441 kts | 348° |
| 2026-04-26 18:06 | -7.31976 | -63.79138 | 32911 ft | 442 kts | 348° |
| 2026-04-26 18:07 | -7.25953 | -63.80387 | 32911 ft | 441 kts | 348° |
| 2026-04-26 18:07 | -7.19976 | -63.81626 | 32911 ft | 440 kts | 348° |
| 2026-04-26 18:08 | -7.14020 | -63.82861 | 32911 ft | 438 kts | 348° |
| 2026-04-26 18:08 | -7.08043 | -63.84100 | 32910 ft | 438 kts | 348° |
| 2026-04-26 18:09 | -7.02064 | -63.85340 | 32910 ft | 438 kts | 348° |
| 2026-04-26 18:09 | -6.96072 | -63.86585 | 32910 ft | 439 kts | 349° |
| 2026-04-26 18:10 | -6.90049 | -63.87833 | 32910 ft | 441 kts | 349° |
| 2026-04-26 18:10 | -6.84000 | -63.89083 | 32913 ft | 443 kts | 349° |
| 2026-04-26 18:11 | -6.77959 | -63.90332 | 32912 ft | 443 kts | 349° |
| 2026-04-26 18:11 | -6.71922 | -63.91581 | 32912 ft | 442 kts | 349° |
| 2026-04-26 18:12 | -6.65897 | -63.92828 | 32912 ft | 442 kts | 349° |
| 2026-04-26 18:12 | -6.59881 | -63.94072 | 32912 ft | 442 kts | 349° |
| 2026-04-26 18:13 | -6.53834 | -63.95322 | 32912 ft | 442 kts | 349° |
| 2026-04-26 18:13 | -6.47778 | -63.96574 | 32874 ft | 443 kts | 349° |
| 2026-04-26 18:14 | -6.41753 | -63.97985 | 32860 ft | 443 kts | 347° |
| 2026-04-26 18:14 | -6.35759 | -63.99472 | 32857 ft | 443 kts | 347° |
| 2026-04-26 18:15 | -6.29750 | -64.00963 | 32857 ft | 443 kts | 347° |
| 2026-04-26 18:15 | -6.23874 | -64.02420 | 32857 ft | 443 kts | 347° |
| 2026-04-26 18:16 | -6.17894 | -64.03903 | 32857 ft | 443 kts | 347° |
| 2026-04-26 18:16 | -6.08908 | -64.06131 | 32857 ft | 443 kts | 347° |
| 2026-04-26 18:17 | -6.02930 | -64.07612 | 32856 ft | 443 kts | 347° |
| 2026-04-26 18:17 | -5.96946 | -64.09095 | 32856 ft | 443 kts | 347° |
| 2026-04-26 18:18 | -5.90940 | -64.10583 | 32856 ft | 443 kts | 347° |
| 2026-04-26 18:18 | -5.84896 | -64.12080 | 32859 ft | 443 kts | 347° |
| 2026-04-26 18:19 | -5.78889 | -64.13567 | 32859 ft | 443 kts | 347° |
| 2026-04-26 18:19 | -5.72865 | -64.15058 | 32859 ft | 443 kts | 347° |
| 2026-04-26 18:20 | -5.66855 | -64.16546 | 32858 ft | 443 kts | 347° |
| 2026-04-26 18:20 | -5.62826 | -64.17543 | 32858 ft | 443 kts | 347° |
| 2026-04-26 18:21 | -5.54826 | -64.19522 | 32858 ft | 443 kts | 347° |
| 2026-04-26 18:21 | -5.48848 | -64.21001 | 32858 ft | 443 kts | 347° |
| 2026-04-26 18:22 | -5.42803 | -64.22495 | 32858 ft | 443 kts | 347° |
| 2026-04-26 18:22 | -5.36815 | -64.23976 | 32858 ft | 443 kts | 347° |
| 2026-04-26 18:23 | -5.30798 | -64.25463 | 32857 ft | 443 kts | 347° |
| 2026-04-26 18:23 | -5.24764 | -64.26955 | 32857 ft | 443 kts | 347° |
| 2026-04-26 18:24 | -5.18781 | -64.28435 | 32857 ft | 443 kts | 347° |
| 2026-04-26 18:24 | -5.12784 | -64.29917 | 32857 ft | 443 kts | 347° |
| 2026-04-26 18:25 | -5.06768 | -64.31400 | 32857 ft | 444 kts | 347° |
| 2026-04-26 18:25 | -5.00698 | -64.32900 | 32857 ft | 446 kts | 346° |
| 2026-04-26 18:26 | -4.94641 | -64.34398 | 32858 ft | 451 kts | 346° |
| 2026-04-26 18:26 | -4.91547 | -64.35164 | 32551 ft | 451 kts | 346° |
| 2026-04-26 18:26 | -4.88595 | -64.35893 | 31974 ft | 435 kts | 346° |
| 2026-04-26 18:27 | -4.85725 | -64.36603 | 31406 ft | 421 kts | 346° |
| 2026-04-26 18:27 | -4.82930 | -64.37293 | 30853 ft | 408 kts | 346° |
| 2026-04-26 18:27 | -4.80184 | -64.37972 | 30311 ft | 396 kts | 346° |
| 2026-04-26 18:27 | -4.77552 | -64.38622 | 29793 ft | 385 kts | 346° |
| 2026-04-26 18:28 | -4.74970 | -64.39259 | 29284 ft | 375 kts | 346° |
| 2026-04-26 18:28 | -4.72465 | -64.39878 | 28791 ft | 366 kts | 346° |
| 2026-04-26 18:28 | -4.70014 | -64.40483 | 28309 ft | 357 kts | 346° |
| 2026-04-26 18:28 | -4.67636 | -64.41071 | 27841 ft | 350 kts | 346° |
| 2026-04-26 18:29 | -4.65256 | -64.41657 | 27378 ft | 352 kts | 346° |
| 2026-04-26 18:29 | -4.62906 | -64.42238 | 26917 ft | 351 kts | 346° |
| 2026-04-26 18:29 | -4.60532 | -64.42824 | 26451 ft | 350 kts | 346° |
| 2026-04-26 18:29 | -4.58184 | -64.43403 | 25989 ft | 348 kts | 347° |
| 2026-04-26 18:30 | -4.55836 | -64.43983 | 25528 ft | 347 kts | 347° |
| 2026-04-26 18:30 | -4.53502 | -64.44558 | 25069 ft | 345 kts | 347° |
| 2026-04-26 18:30 | -4.51171 | -64.45134 | 24610 ft | 344 kts | 347° |
| 2026-04-26 18:30 | -4.48866 | -64.45702 | 24157 ft | 342 kts | 347° |
| 2026-04-26 18:31 | -4.46576 | -64.46267 | 23707 ft | 341 kts | 347° |
| 2026-04-26 18:31 | -4.44273 | -64.46835 | 23254 ft | 339 kts | 347° |
| 2026-04-26 18:31 | -4.41966 | -64.47405 | 22800 ft | 337 kts | 347° |
| 2026-04-26 18:31 | -4.39700 | -64.47964 | 22354 ft | 336 kts | 347° |
| 2026-04-26 18:32 | -4.37440 | -64.48521 | 21909 ft | 334 kts | 347° |
| 2026-04-26 18:32 | -4.35334 | -64.49509 | 21445 ft | 334 kts | 321° |
| 2026-04-26 18:32 | -4.33658 | -64.51068 | 21019 ft | 333 kts | 317° |
| 2026-04-26 18:32 | -4.31968 | -64.52673 | 20574 ft | 331 kts | 317° |
| 2026-04-26 18:33 | -4.30318 | -64.54249 | 20140 ft | 330 kts | 317° |
| 2026-04-26 18:33 | -4.28673 | -64.55823 | 19706 ft | 328 kts | 317° |
| 2026-04-26 18:33 | -4.27041 | -64.57388 | 19275 ft | 327 kts | 317° |
| 2026-04-26 18:33 | -4.25390 | -64.58973 | 18839 ft | 325 kts | 317° |
| 2026-04-26 18:34 | -4.23780 | -64.60519 | 18414 ft | 324 kts | 317° |
| 2026-04-26 18:34 | -4.22150 | -64.62086 | 17983 ft | 321 kts | 317° |
| 2026-04-26 18:34 | -4.20555 | -64.63619 | 17562 ft | 318 kts | 317° |
| 2026-04-26 18:34 | -4.18969 | -64.65144 | 17143 ft | 316 kts | 317° |
| 2026-04-26 18:35 | -4.17397 | -64.66657 | 16725 ft | 314 kts | 317° |
| 2026-04-26 18:35 | -4.15829 | -64.68163 | 16310 ft | 312 kts | 317° |
| 2026-04-26 18:35 | -4.14256 | -64.69676 | 15894 ft | 310 kts | 317° |
| 2026-04-26 18:35 | -4.12716 | -64.71157 | 15486 ft | 308 kts | 317° |
| 2026-04-26 18:36 | -4.11174 | -64.72639 | 15079 ft | 306 kts | 317° |
| 2026-04-26 18:36 | -4.09646 | -64.74109 | 14675 ft | 305 kts | 317° |
| 2026-04-26 18:36 | -4.08129 | -64.75568 | 14274 ft | 303 kts | 317° |
| 2026-04-26 18:36 | -4.06619 | -64.77019 | 13876 ft | 302 kts | 317° |
| 2026-04-26 18:37 | -4.05101 | -64.78472 | 13435 ft | 302 kts | 319° |
| 2026-04-26 18:37 | -4.03273 | -64.79353 | 13011 ft | 296 kts | 352° |
| 2026-04-26 18:37 | -4.01274 | -64.79142 | 12617 ft | 289 kts | 19° |
| 2026-04-26 18:37 | -3.99343 | -64.78520 | 12196 ft | 289 kts | 21° |
| 2026-04-26 18:38 | -3.97472 | -64.77876 | 11799 ft | 288 kts | 20° |
| 2026-04-26 18:38 | -3.95583 | -64.77223 | 11402 ft | 286 kts | 20° |
| 2026-04-26 18:38 | -3.93700 | -64.76572 | 11010 ft | 283 kts | 20° |
| 2026-04-26 18:38 | -3.91870 | -64.75936 | 10632 ft | 280 kts | 20° |
| 2026-04-26 18:39 | -3.90029 | -64.75297 | 10254 ft | 277 kts | 20° |
| 2026-04-26 18:39 | -3.88207 | -64.74663 | 9882 ft | 274 kts | 20° |
| 2026-04-26 18:39 | -3.86416 | -64.74040 | 9518 ft | 272 kts | 20° |
| 2026-04-26 18:39 | -3.84684 | -64.73438 | 9166 ft | 269 kts | 20° |
| 2026-04-26 18:40 | -3.82899 | -64.72817 | 8804 ft | 267 kts | 20° |
| 2026-04-26 18:40 | -3.81142 | -64.72206 | 8448 ft | 265 kts | 20° |
| 2026-04-26 18:40 | -3.79426 | -64.71609 | 8100 ft | 261 kts | 20° |
| 2026-04-26 18:40 | -3.77706 | -64.71010 | 7752 ft | 260 kts | 20° |
| 2026-04-26 18:41 | -3.76022 | -64.70424 | 7410 ft | 254 kts | 20° |
| 2026-04-26 18:41 | -3.74367 | -64.69847 | 7075 ft | 249 kts | 20° |
| 2026-04-26 18:41 | -3.72736 | -64.69280 | 6746 ft | 245 kts | 20° |
| 2026-04-26 18:41 | -3.71153 | -64.68729 | 6426 ft | 241 kts | 19° |
| 2026-04-26 18:42 | -3.69563 | -64.68175 | 6106 ft | 239 kts | 19° |
| 2026-04-26 18:42 | -3.68001 | -64.67632 | 5791 ft | 237 kts | 19° |
| 2026-04-26 18:42 | -3.66453 | -64.67093 | 5479 ft | 235 kts | 19° |
| 2026-04-26 18:42 | -3.64928 | -64.66562 | 5172 ft | 233 kts | 19° |
| 2026-04-26 18:43 | -3.63396 | -64.66029 | 4862 ft | 230 kts | 19° |
| 2026-04-26 18:43 | -3.61888 | -64.65504 | 4558 ft | 228 kts | 19° |
| 2026-04-26 18:43 | -3.60403 | -64.64987 | 4259 ft | 225 kts | 19° |
| 2026-04-26 18:43 | -3.58938 | -64.64470 | 4004 ft | 221 kts | 21° |
| 2026-04-26 18:44 | -3.57552 | -64.63759 | 3584 ft | 225 kts | 27° |
| 2026-04-26 18:44 | -3.56164 | -64.63031 | 3174 ft | 228 kts | 27° |
| 2026-04-26 18:44 | -3.54744 | -64.62286 | 2754 ft | 231 kts | 27° |
| 2026-04-26 18:44 | -3.53312 | -64.61534 | 2335 ft | 233 kts | 26° |
| 2026-04-26 18:45 | -3.51827 | -64.61097 | 2207 ft | 218 kts | 355° |
| 2026-04-26 18:45 | -3.50510 | -64.61706 | 2204 ft | 206 kts | 323° |
| 2026-04-26 18:45 | -3.49404 | -64.62576 | 2193 ft | 198 kts | 321° |
| 2026-04-26 18:45 | -3.48389 | -64.63422 | 2213 ft | 182 kts | 320° |
| 2026-04-26 18:46 | -3.47490 | -64.64197 | 2220 ft | 153 kts | 320° |
| 2026-04-26 18:46 | -3.46736 | -64.64860 | 2159 ft | 141 kts | 320° |
| 2026-04-26 18:46 | -3.46012 | -64.65494 | 1993 ft | 135 kts | 320° |
| 2026-04-26 18:46 | -3.45324 | -64.66100 | 1831 ft | 130 kts | 320° |
| 2026-04-26 18:47 | -3.44654 | -64.66695 | 1669 ft | 126 kts | 319° |
| 2026-04-26 18:47 | -3.44007 | -64.67273 | 1511 ft | 124 kts | 319° |
| 2026-04-26 18:47 | -3.43362 | -64.67851 | 1351 ft | 123 kts | 319° |
| 2026-04-26 18:47 | -3.42736 | -64.68413 | 1193 ft | 121 kts | 319° |
| 2026-04-26 18:48 | -3.42110 | -64.68977 | 1035 ft | 121 kts | 319° |
| 2026-04-26 18:48 | -3.41484 | -64.69539 | 877 ft | 120 kts | 319° |
| 2026-04-26 18:48 | -3.40862 | -64.70100 | 718 ft | 120 kts | 319° |
| 2026-04-26 18:48 | -3.40243 | -64.70657 | 562 ft | 120 kts | 318° |
| 2026-04-26 18:49 | -3.39628 | -64.71211 | 404 ft | 119 kts | 318° |
| 2026-04-26 18:49 | -3.39008 | -64.71768 | 234 ft | 119 kts | 319° |
| 2026-04-26 18:49 | -3.38428 | -64.72285 | 186 ft | 104 kts | 318° |
| 2026-04-26 18:49 | -3.38082 | -64.72605 | 184 ft | 24 kts | 354° |
| 2026-04-26 18:50 | -3.38078 | -64.72589 | 184 ft | 3 kts | 150° |
| 2026-04-26 18:50 | -3.38107 | -64.72572 | 184 ft | 6 kts | 150° |
| 2026-04-26 18:50 | -3.38148 | -64.72522 | 184 ft | 13 kts | 76° |
| 2026-04-26 18:50 | -3.38078 | -64.72433 | 186 ft | 18 kts | 51° |
| 2026-04-26 18:51 | -3.37987 | -64.72416 | 189 ft | 7 kts | 317° |
| 2026-04-26 18:51 | -3.37989 | -64.72450 | 188 ft | 1 kts | 223° |
| 2026-04-26 18:51 | -3.37991 | -64.72451 | 188 ft | 0 kts | 223° |